Time;durP1;ratioP1;P1;durP2;ratioP2;P2;SDS_P1;SDS_P2;PMS_P1;PMS_P2;Temp;Humidity;BMP_temperature;BMP_pressure;BME280_temperature;BME280_humidity;BME280_pressure;Samples;Min_cycle;Max_cycle;Signal;HPM_P1;HPM_P2
2022/06/27 00:00:45;;;;;;;2.72;1.20;;;11.60;99.90;;;;;;4974920;28;20034;-76
2022/06/27 00:03:11;;;;;;;1.33;0.75;;;11.60;99.90;;;;;;4974760;28;20038;-76
2022/06/27 00:05:37;;;;;;;4.05;1.23;;;11.60;99.90;;;;;;4974789;28;20034;-76
2022/06/27 00:08:04;;;;;;;2.42;1.00;;;11.50;99.90;;;;;;4974652;28;20035;-76
2022/06/27 00:10:30;;;;;;;2.47;1.15;;;11.50;99.90;;;;;;4974156;28;20029;-77
2022/06/27 00:12:55;;;;;;;2.25;1.17;;;11.40;99.90;;;;;;4973775;28;20133;-77
2022/06/27 00:15:22;;;;;;;2.13;0.93;;;11.40;99.90;;;;;;4974541;28;20054;-77
2022/06/27 00:17:47;;;;;;;2.90;0.90;;;11.40;99.90;;;;;;4974415;28;20027;-77
2022/06/27 00:20:14;;;;;;;1.13;0.80;;;11.40;99.90;;;;;;4974025;28;20026;-77
2022/06/27 00:22:40;;;;;;;3.53;1.08;;;11.40;99.90;;;;;;4974117;28;20027;-77
2022/06/27 00:25:08;;;;;;;1.45;0.90;;;11.40;99.90;;;;;;4993530;22;20114;-78
2022/06/27 00:27:33;;;;;;;3.72;1.15;;;11.50;99.90;;;;;;4977560;28;20061;-77
2022/06/27 00:29:59;;;;;;;1.60;0.90;;;11.50;99.90;;;;;;4974095;28;20460;-77
2022/06/27 00:32:26;;;;;;;1.58;1.23;;;11.50;99.90;;;;;;4973783;28;20394;-77
2022/06/27 00:34:52;;;;;;;2.63;1.15;;;11.40;99.90;;;;;;4974081;28;20030;-77
2022/06/27 00:37:18;;;;;;;1.05;0.90;;;11.40;99.90;;;;;;4973994;28;20492;-77
2022/06/27 00:39:44;;;;;;;1.63;0.90;;;11.40;99.90;;;;;;4956380;28;20191;-77
2022/06/27 00:42:09;;;;;;;1.63;1.02;;;11.40;99.90;;;;;;4973730;28;20053;-77
2022/06/27 00:44:41;;;;;;;4.30;0.80;;;11.30;99.90;;;;;;4973726;28;20027;-77
2022/06/27 00:47:09;;;;;;;3.30;1.00;;;11.30;99.90;;;;;;4973701;28;20035;-77
2022/06/27 00:49:36;;;;;;;5.07;0.70;;;11.30;99.90;;;;;;4973675;28;20023;-77
2022/06/27 00:52:07;;;;;;;1.52;1.08;;;11.20;99.90;;;;;;4973827;28;20077;-77
2022/06/27 00:54:35;;;;;;;5.43;1.08;;;11.20;99.90;;;;;;4973409;28;20592;-77
2022/06/27 00:57:00;;;;;;;2.60;1.05;;;11.10;99.90;;;;;;4975888;28;20049;-77
2022/06/27 00:59:26;;;;;;;1.10;0.80;;;11.10;99.90;;;;;;4984866;28;20018;-77
2022/06/27 01:01:52;;;;;;;5.22;1.10;;;11.00;99.90;;;;;;4991487;28;20242;-77
2022/06/27 01:04:18;;;;;;;1.55;0.90;;;11.00;99.90;;;;;;4991105;28;20040;-77
2022/06/27 01:06:44;;;;;;;2.63;1.10;;;10.90;99.90;;;;;;4991394;28;20122;-77
2022/06/27 01:09:10;;;;;;;2.38;1.00;;;10.80;99.90;;;;;;4991272;28;20451;-77
2022/06/27 01:11:35;;;;;;;2.65;0.95;;;10.70;99.90;;;;;;4991043;28;20027;-77
2022/06/27 01:14:02;;;;;;;5.50;1.48;;;10.70;99.90;;;;;;4991841;28;20057;-77
2022/06/27 01:16:28;;;;;;;1.98;1.10;;;10.70;99.90;;;;;;4973616;28;20033;-77
2022/06/27 01:18:54;;;;;;;5.78;1.13;;;10.60;99.90;;;;;;4990774;28;20105;-77
2022/06/27 01:21:23;;;;;;;2.03;1.60;;;10.50;99.90;;;;;;4991488;28;20022;-77
2022/06/27 01:23:50;;;;;;;4.53;1.20;;;10.40;99.90;;;;;;4989935;28;20085;-77
2022/06/27 01:26:20;;;;;;;4.43;1.02;;;10.30;99.90;;;;;;4989800;28;20116;-77
2022/06/27 01:28:46;;;;;;;2.45;1.10;;;10.20;99.90;;;;;;4973094;28;20111;-77
2022/06/27 01:31:13;;;;;;;6.32;1.77;;;10.20;99.90;;;;;;4990739;28;20105;-77
2022/06/27 01:33:39;;;;;;;2.55;1.17;;;10.10;99.90;;;;;;4990466;28;20042;-77
2022/06/27 01:38:51;;;;;;;1.42;1.17;;;10.00;99.90;;;;;;4990686;28;20143;-77
2022/06/27 01:41:17;;;;;;;2.67;0.90;;;9.90;99.90;;;;;;4990973;28;20098;-77
2022/06/27 01:43:47;;;;;;;2.85;1.08;;;9.90;99.90;;;;;;4973190;28;20110;-77
2022/06/27 01:46:14;;;;;;;1.70;1.20;;;9.80;99.90;;;;;;4990180;28;20018;-77
2022/06/27 01:48:40;;;;;;;1.95;1.00;;;9.70;99.90;;;;;;4991075;28;20029;-77
2022/06/27 01:51:09;;;;;;;1.45;1.13;;;9.70;99.90;;;;;;4990673;28;20019;-77
2022/06/27 01:53:36;;;;;;;3.97;1.20;;;9.60;99.90;;;;;;4990642;28;20034;-77
2022/06/27 01:56:03;;;;;;;2.55;1.20;;;9.50;99.90;;;;;;4990604;28;20022;-77
2022/06/27 01:58:29;;;;;;;5.78;1.50;;;9.40;99.90;;;;;;4972638;28;20027;-76
2022/06/27 02:00:55;;;;;;;1.38;1.10;;;9.40;99.90;;;;;;4972516;28;20033;-77
2022/06/27 02:03:23;;;;;;;1.92;0.90;;;9.40;99.90;;;;;;4972837;28;20057;-77
2022/06/27 02:05:51;;;;;;;1.80;1.30;;;9.30;99.90;;;;;;4972742;28;20078;-77
2022/06/27 02:08:22;;;;;;;2.05;0.70;;;9.30;99.90;;;;;;4972706;28;20034;-77
2022/06/27 02:10:48;;;;;;;4.38;1.20;;;9.20;99.90;;;;;;4972147;28;20060;-77
2022/06/27 02:13:14;;;;;;;6.78;1.67;;;9.20;99.90;;;;;;4972412;28;20035;-77
2022/06/27 02:16:02;;;;;;;1.88;0.90;;;9.20;99.90;;;;;;4972575;28;20097;-77
2022/06/27 02:18:29;;;;;;;1.67;0.90;;;9.10;99.90;;;;;;4983991;28;20023;-76
2022/06/27 02:20:55;;;;;;;1.08;0.95;;;9.10;99.90;;;;;;4972767;28;20081;-76
2022/06/27 02:23:21;;;;;;;4.18;1.15;;;9.10;99.90;;;;;;4990148;28;20069;-76
2022/06/27 02:25:48;;;;;;;3.03;1.25;;;9.00;99.90;;;;;;5016156;23;20033;-76
2022/06/27 02:28:16;;;;;;;3.60;1.17;;;9.10;99.90;;;;;;4980213;28;20029;-76
2022/06/27 02:30:42;;;;;;;2.60;1.17;;;9.10;99.90;;;;;;5009677;28;20025;-76
2022/06/27 02:33:08;;;;;;;1.98;1.02;;;9.00;99.90;;;;;;5010631;28;20030;-76
2022/06/27 02:35:35;;;;;;;2.88;1.50;;;9.00;99.90;;;;;;5012311;28;20041;-76
2022/06/27 02:38:02;;;;;;;2.70;0.80;;;8.90;99.90;;;;;;5014369;28;20024;-76
2022/06/27 02:40:29;;;;;;;1.85;0.98;;;8.90;99.90;;;;;;5014117;28;20022;-76
2022/06/27 02:42:57;;;;;;;2.78;1.08;;;8.80;99.90;;;;;;5014591;28;20072;-76
2022/06/27 02:45:29;;;;;;;4.47;1.10;;;8.80;99.90;;;;;;5014351;28;20032;-76
2022/06/27 02:47:58;;;;;;;3.50;1.10;;;8.70;99.90;;;;;;5014186;28;20468;-76
2022/06/27 02:50:27;;;;;;;1.67;1.30;;;8.70;99.90;;;;;;5014113;28;20025;-76
2022/06/27 02:52:56;;;;;;;1.30;0.95;;;8.60;99.90;;;;;;5013912;28;20041;-76
2022/06/27 02:55:27;;;;;;;2.85;1.42;;;8.60;99.90;;;;;;5013905;28;20029;-76
2022/06/27 02:58:10;;;;;;;1.55;1.20;;;8.50;99.90;;;;;;5014123;28;20022;-76
2022/06/27 03:00:39;;;;;;;4.63;1.30;;;8.50;99.90;;;;;;5013940;28;20018;-76
2022/06/27 03:03:06;;;;;;;3.15;1.50;;;8.40;99.90;;;;;;5014319;28;20033;-76
2022/06/27 03:05:32;;;;;;;0.90;0.90;;;8.40;99.90;;;;;;5013857;28;20437;-76
2022/06/27 03:07:58;;;;;;;1.77;1.17;;;8.40;99.90;;;;;;5013744;28;20025;-76
2022/06/27 03:10:24;;;;;;;1.00;0.90;;;8.40;99.90;;;;;;5013767;28;20084;-76
2022/06/27 03:12:50;;;;;;;3.30;1.40;;;8.30;99.90;;;;;;5013603;28;20037;-76
2022/06/27 03:15:16;;;;;;;2.20;1.35;;;8.30;99.90;;;;;;5014038;28;20022;-76
2022/06/27 03:17:42;;;;;;;6.50;1.10;;;8.30;99.90;;;;;;5014190;28;20022;-76
2022/06/27 03:20:08;;;;;;;3.45;1.30;;;8.20;99.90;;;;;;5013493;28;20018;-76
2022/06/27 03:22:34;;;;;;;2.20;1.35;;;8.30;99.90;;;;;;5013515;28;20076;-76
2022/06/27 03:25:00;;;;;;;2.05;1.02;;;8.30;99.90;;;;;;5013858;28;20018;-76
2022/06/27 03:27:25;;;;;;;2.90;1.42;;;8.30;99.90;;;;;;5018322;22;20050;-75
2022/06/27 03:29:51;;;;;;;2.63;1.13;;;8.30;99.90;;;;;;4976250;28;20026;-75
2022/06/27 03:32:17;;;;;;;1.23;1.10;;;8.30;99.90;;;;;;4999306;28;20030;-75
2022/06/27 03:34:43;;;;;;;1.52;1.00;;;8.30;99.90;;;;;;4993687;28;20832;-75
2022/06/27 03:37:09;;;;;;;2.92;1.20;;;8.20;99.90;;;;;;4993708;28;20527;-75
2022/06/27 03:39:34;;;;;;;2.75;1.00;;;8.20;99.90;;;;;;4993980;28;20372;-75
2022/06/27 03:42:00;;;;;;;2.38;1.00;;;8.20;99.90;;;;;;4993023;28;20038;-75
2022/06/27 03:44:26;;;;;;;1.65;0.90;;;8.20;99.90;;;;;;4993672;28;20030;-75
2022/06/27 03:46:52;;;;;;;2.10;0.80;;;8.10;99.90;;;;;;4992523;28;20049;-75
2022/06/27 03:52:02;;;;;;;1.42;1.30;;;8.10;99.90;;;;;;4993298;28;20096;-75
2022/06/27 03:54:27;;;;;;;4.97;2.00;;;8.10;99.90;;;;;;4993357;28;20026;-75
2022/06/27 03:56:55;;;;;;;6.22;2.45;;;8.10;99.90;;;;;;4993004;28;20037;-75
2022/06/27 03:59:20;;;;;;;4.35;2.10;;;8.10;99.90;;;;;;4986702;28;20018;-75
2022/06/27 04:01:46;;;;;;;4.32;2.20;;;8.10;99.90;;;;;;4998187;28;20435;-75
2022/06/27 04:04:12;;;;;;;4.75;2.95;;;8.10;99.90;;;;;;4993186;28;20023;-75
2022/06/27 04:06:39;;;;;;;5.78;2.22;;;8.10;99.90;;;;;;4993339;28;20030;-75
2022/06/27 04:09:04;;;;;;;7.93;3.53;;;8.20;99.90;;;;;;4993402;28;20521;-75
2022/06/27 04:11:30;;;;;;;4.75;3.38;;;8.20;99.90;;;;;;4992858;28;20026;-75
2022/06/27 04:13:56;;;;;;;7.18;3.38;;;8.20;99.90;;;;;;4975769;28;20048;-75
2022/06/27 04:16:22;;;;;;;5.25;3.17;;;8.20;99.90;;;;;;4992485;28;20022;-75
2022/06/27 04:18:47;;;;;;;9.32;3.60;;;8.20;99.90;;;;;;4992971;28;20105;-75
2022/06/27 04:21:13;;;;;;;4.63;3.25;;;8.20;99.90;;;;;;4993355;28;20026;-75
2022/06/27 04:23:40;;;;;;;5.32;3.25;;;8.20;99.90;;;;;;4992912;28;20019;-75
2022/06/27 04:26:06;;;;;;;6.50;3.10;;;8.20;99.90;;;;;;4992944;28;20093;-75
2022/06/27 04:28:32;;;;;;;4.25;2.60;;;8.20;99.90;;;;;;4992842;28;20419;-75
2022/06/27 04:30:58;;;;;;;6.60;4.10;;;8.20;99.90;;;;;;4997320;28;20026;-76
2022/06/27 04:33:23;;;;;;;5.05;3.03;;;8.30;99.90;;;;;;4992620;28;20035;-75
2022/06/27 04:35:50;;;;;;;4.22;2.90;;;8.30;99.90;;;;;;4992811;28;20469;-76
2022/06/27 04:38:19;;;;;;;5.45;2.95;;;8.40;99.90;;;;;;4992724;28;20029;-76
2022/06/27 04:40:45;;;;;;;5.07;2.95;;;8.40;99.90;;;;;;4992509;28;20019;-75
2022/06/27 04:43:11;;;;;;;3.97;2.28;;;8.40;99.90;;;;;;4992586;28;20372;-76
2022/06/27 04:45:37;;;;;;;4.22;2.90;;;8.40;99.90;;;;;;4992370;28;20069;-76
2022/06/27 04:48:07;;;;;;;4.60;2.92;;;8.40;99.90;;;;;;4992414;28;20037;-76
2022/06/27 04:50:36;;;;;;;3.88;3.00;;;8.50;99.90;;;;;;4992506;28;20029;-76
2022/06/27 04:53:02;;;;;;;8.73;3.60;;;8.50;99.90;;;;;;4992304;28;20051;-76
2022/06/27 04:55:28;;;;;;;5.55;2.78;;;8.60;99.90;;;;;;4991948;28;20102;-76
2022/06/27 04:57:55;;;;;;;5.57;3.38;;;8.80;99.90;;;;;;4991042;28;20026;-77
2022/06/27 05:00:20;;;;;;;11.18;2.90;;;8.80;99.90;;;;;;4995579;28;20113;-77
2022/06/27 05:02:46;;;;;;;5.78;3.10;;;8.80;99.90;;;;;;4992845;28;20478;-77
2022/06/27 05:05:12;;;;;;;3.33;1.83;;;8.90;99.90;;;;;;4992358;28;20019;-77
2022/06/27 05:07:38;;;;;;;5.03;2.13;;;9.00;99.90;;;;;;4991481;28;20053;-77
2022/06/27 05:10:05;;;;;;;4.88;2.20;;;9.10;99.90;;;;;;4991937;28;20580;-77
2022/06/27 05:12:31;;;;;;;3.88;1.80;;;9.20;99.90;;;;;;4991420;28;20030;-77
2022/06/27 05:14:57;;;;;;;2.42;1.80;;;9.30;99.90;;;;;;4992170;28;20501;-77
2022/06/27 05:17:26;;;;;;;3.65;1.52;;;9.40;99.90;;;;;;4991765;28;20105;-77
2022/06/27 05:19:52;;;;;;;2.33;1.35;;;9.50;99.90;;;;;;4991627;28;20014;-77
2022/06/27 05:22:18;;;;;;;3.70;1.65;;;9.60;99.90;;;;;;4973957;28;20033;-77
2022/06/27 05:24:44;;;;;;;6.45;1.60;;;9.80;99.90;;;;;;4991027;28;20010;-77
2022/06/27 05:27:10;;;;;;;1.63;1.50;;;9.90;99.90;;;;;;5004403;23;20389;-74
2022/06/27 05:29:36;;;;;;;2.45;1.30;;;10.00;99.90;;;;;;4991717;28;20026;-76
2022/06/27 05:32:03;;;;;;;1.85;1.30;;;10.10;99.90;;;;;;4991094;28;20113;-75
2022/06/27 05:34:29;;;;;;;6.18;1.55;;;10.10;99.90;;;;;;4991269;28;20038;-75
2022/06/27 05:36:54;;;;;;;1.63;0.93;;;10.30;99.90;;;;;;4990980;28;20110;-75
2022/06/27 05:39:20;;;;;;;5.35;1.17;;;10.40;99.90;;;;;;4991609;28;20052;-75
2022/06/27 05:41:46;;;;;;;2.90;1.00;;;10.50;99.90;;;;;;4991359;28;20022;-76
2022/06/27 05:44:13;;;;;;;3.47;1.25;;;10.60;99.90;;;;;;4990856;28;20038;-75
2022/06/27 05:46:40;;;;;;;2.05;1.05;;;10.80;99.90;;;;;;4991400;28;20431;-75
2022/06/27 05:49:08;;;;;;;2.80;0.90;;;11.00;99.90;;;;;;4991149;28;20029;-75
2022/06/27 05:51:35;;;;;;;1.83;1.10;;;11.10;99.90;;;;;;4999218;28;20054;-75
2022/06/27 05:54:01;;;;;;;3.88;1.02;;;11.10;99.90;;;;;;4991247;28;20534;-75
2022/06/27 05:56:28;;;;;;;1.52;1.10;;;11.20;99.90;;;;;;4991374;28;20109;-75
2022/06/27 05:58:55;;;;;;;4.03;1.55;;;11.20;99.90;;;;;;4990539;28;20018;-75
2022/06/27 06:01:22;;;;;;;3.08;1.40;;;11.30;99.90;;;;;;4991069;28;20018;-75
2022/06/27 06:03:49;;;;;;;4.50;0.98;;;11.40;99.90;;;;;;4991218;28;20507;-75
2022/06/27 06:06:16;;;;;;;4.10;0.90;;;11.50;99.90;;;;;;4990193;28;20041;-75
2022/06/27 06:08:43;;;;;;;3.05;1.08;;;11.60;99.90;;;;;;4990265;28;20102;-75
2022/06/27 06:11:10;;;;;;;1.50;0.88;;;11.80;99.90;;;;;;4996906;28;20490;-75
2022/06/27 06:13:36;;;;;;;2.15;0.80;;;11.90;99.90;;;;;;4997099;28;20076;-75
2022/06/27 06:16:02;;;;;;;2.28;1.17;;;12.10;99.90;;;;;;4997323;28;20052;-75
2022/06/27 06:18:30;;;;;;;5.47;1.25;;;12.40;99.90;;;;;;4997635;28;20033;-75
2022/06/27 06:20:56;;;;;;;3.38;1.20;;;12.70;99.90;;;;;;4997087;28;20019;-75
2022/06/27 06:23:22;;;;;;;3.15;0.80;;;13.10;99.90;;;;;;4997034;28;20049;-75
2022/06/27 06:25:50;;;;;;;4.80;1.00;;;13.80;99.90;;;;;;4998529;28;20358;-76
2022/06/27 06:28:16;;;;;;;3.72;0.77;;;14.40;99.90;;;;;;4997570;28;20019;-75
2022/06/27 06:30:42;;;;;;;8.00;0.80;;;14.80;99.90;;;;;;4996466;28;20018;-76
2022/06/27 06:33:08;;;;;;;9.98;0.80;;;15.10;99.90;;;;;;4996685;28;20046;-77
2022/06/27 06:35:34;;;;;;;5.00;0.88;;;15.40;99.90;;;;;;4996914;28;20018;-74
2022/06/27 06:38:01;;;;;;;4.70;1.17;;;15.70;99.90;;;;;;4996701;28;20022;-75
2022/06/27 06:40:28;;;;;;;4.43;0.57;;;15.90;99.90;;;;;;4997167;28;20445;-75
2022/06/27 06:42:55;;;;;;;3.15;0.80;;;16.00;99.90;;;;;;4996773;28;20029;-76
2022/06/27 06:45:21;;;;;;;3.50;0.50;;;16.00;99.90;;;;;;4997124;28;20038;-76
2022/06/27 06:47:49;;;;;;;4.10;0.60;;;16.00;99.90;;;;;;4996516;28;20073;-75
2022/06/27 06:50:18;;;;;;;8.55;0.88;;;16.10;99.90;;;;;;4997328;28;20033;-76
2022/06/27 06:52:51;;;;;;;4.70;0.73;;;16.30;99.90;;;;;;4996982;28;20487;-76
2022/06/27 06:55:24;;;;;;;4.32;0.82;;;16.50;99.90;;;;;;4996567;28;20034;-77
2022/06/27 06:57:50;;;;;;;4.60;0.70;;;16.60;99.90;;;;;;4997142;28;20023;-76
2022/06/27 07:00:19;;;;;;;4.13;0.90;;;16.70;99.90;;;;;;4996984;28;20053;-76
2022/06/27 07:02:45;;;;;;;8.85;1.27;;;16.80;99.90;;;;;;4995980;28;20077;-77
2022/06/27 07:05:11;;;;;;;1.98;0.70;;;16.80;99.90;;;;;;4996529;28;20069;-76
2022/06/27 07:07:43;;;;;;;4.45;0.70;;;16.90;99.90;;;;;;4996753;28;20018;-75
2022/06/27 07:10:11;;;;;;;4.85;1.00;;;17.10;99.90;;;;;;4990110;28;20015;-76
2022/06/27 07:12:38;;;;;;;3.20;0.70;;;17.20;99.90;;;;;;4996570;28;20027;-77
2022/06/27 07:15:05;;;;;;;7.20;0.90;;;17.30;99.90;;;;;;4996761;28;20085;-77
2022/06/27 07:17:43;;;;;;;3.20;0.55;;;17.20;99.90;;;;;;4996679;28;20024;-75
2022/06/27 07:20:10;;;;;;;8.68;0.80;;;17.20;99.90;;;;;;4989861;28;20050;-76
2022/06/27 07:22:35;;;;;;;5.07;0.40;;;17.20;99.90;;;;;;4993763;28;20499;-76
2022/06/27 07:25:02;;;;;;;5.95;1.33;;;17.10;99.90;;;;;;4993692;28;20098;-77
2022/06/27 07:27:27;;;;;;;3.25;0.60;;;17.10;99.90;;;;;;5033317;23;20031;-77
2022/06/27 07:29:54;;;;;;;5.70;0.68;;;17.10;99.90;;;;;;4993771;28;20049;-77
2022/06/27 07:32:20;;;;;;;3.65;0.77;;;17.00;99.90;;;;;;4992963;28;20118;-77
2022/06/27 07:34:47;;;;;;;2.67;0.60;;;17.10;99.90;;;;;;4993273;28;20026;-78
2022/06/27 07:37:13;;;;;;;4.20;0.63;;;17.10;99.90;;;;;;4992643;28;20042;-78
2022/06/27 07:39:40;;;;;;;5.40;1.13;;;17.20;99.90;;;;;;4992982;28;20054;-78
2022/06/27 07:42:06;;;;;;;3.78;0.57;;;17.20;99.90;;;;;;4993361;28;20682;-80
2022/06/27 07:44:34;;;;;;;7.20;0.82;;;17.10;99.90;;;;;;4992043;28;20011;-77
2022/06/27 07:47:03;;;;;;;3.30;0.80;;;17.00;99.90;;;;;;4992910;28;20144;-78
2022/06/27 07:49:29;;;;;;;7.85;0.80;;;17.00;99.90;;;;;;4993553;28;20022;-79
2022/06/27 07:51:55;;;;;;;2.53;0.77;;;16.80;99.90;;;;;;4993582;28;20022;-79
2022/06/27 07:54:21;;;;;;;3.90;0.73;;;16.80;99.90;;;;;;4993206;28;20700;-78
2022/06/27 07:56:47;;;;;;;5.97;1.05;;;16.80;99.90;;;;;;4976364;28;20434;-78
2022/06/27 07:59:14;;;;;;;6.40;0.82;;;16.90;99.90;;;;;;4993152;28;20057;-77
2022/06/27 08:01:40;;;;;;;1.63;0.38;;;17.20;99.90;;;;;;4992359;28;20022;-78
2022/06/27 08:04:07;;;;;;;2.08;0.65;;;17.40;99.90;;;;;;4993052;28;20085;-78
2022/06/27 08:06:33;;;;;;;2.40;0.65;;;17.50;99.90;;;;;;4975625;28;20055;-78
2022/06/27 08:09:02;;;;;;;5.18;1.02;;;17.50;99.90;;;;;;4987534;28;20034;-78
2022/06/27 08:11:34;;;;;;;1.85;0.70;;;17.40;99.90;;;;;;4975266;28;20396;-78
2022/06/27 08:14:03;;;;;;;4.93;0.60;;;17.40;99.90;;;;;;4975306;28;20043;-79
2022/06/27 08:16:30;;;;;;;6.90;0.85;;;17.40;99.90;;;;;;4991894;28;20026;-78
2022/06/27 08:18:56;;;;;;;3.33;0.73;;;17.40;99.90;;;;;;4992808;28;20034;-78
2022/06/27 08:21:27;;;;;;;5.70;0.80;;;17.30;99.90;;;;;;4992096;28;20072;-78
2022/06/27 08:23:58;;;;;;;3.78;0.60;;;17.30;99.90;;;;;;4986425;28;20093;-78
2022/06/27 08:26:25;;;;;;;5.35;1.00;;;17.40;99.90;;;;;;4994999;28;20037;-78
2022/06/27 08:28:52;;;;;;;4.28;0.63;;;17.60;99.90;;;;;;4995698;28;20025;-77
2022/06/27 08:31:18;;;;;;;3.70;0.63;;;17.80;99.90;;;;;;4971569;28;20015;-78
2022/06/27 08:33:46;;;;;;;7.60;0.90;;;18.00;99.90;;;;;;4983994;28;20034;-78
2022/06/27 08:36:14;;;;;;;3.33;0.70;;;18.40;99.90;;;;;;4968048;28;20034;-77
2022/06/27 08:38:48;;;;;;;5.25;0.75;;;18.80;99.90;;;;;;4981055;28;20382;-76
2022/06/27 08:41:15;;;;;;;2.90;0.77;;;18.90;98.60;;;;;;4984202;28;20461;-77
2022/06/27 08:43:41;;;;;;;3.42;0.60;;;19.30;99.70;;;;;;4985872;28;20062;-76
2022/06/27 08:46:10;;;;;;;2.70;0.70;;;20.70;97.00;;;;;;4983394;28;20011;-77
2022/06/27 08:48:41;;;;;;;1.63;0.50;;;21.50;86.40;;;;;;4980162;28;20027;-78
2022/06/27 08:51:07;;;;;;;5.93;0.50;;;22.40;76.90;;;;;;4984944;28;20467;-77
2022/06/27 08:53:34;;;;;;;3.85;0.77;;;23.10;72.30;;;;;;4986244;28;20049;-76
2022/06/27 08:56:01;;;;;;;3.40;0.70;;;23.80;65.90;;;;;;4983197;28;20091;-77
2022/06/27 08:58:29;;;;;;;3.75;0.40;;;24.40;64.40;;;;;;4989809;28;20026;-77
2022/06/27 09:00:55;;;;;;;2.17;0.43;;;24.60;59.90;;;;;;4984909;28;20036;-77
2022/06/27 09:03:23;;;;;;;4.72;0.80;;;24.40;60.30;;;;;;4983695;28;20499;-77
2022/06/27 09:06:03;;;;;;;4.38;0.40;;;23.60;60.50;;;;;;4983398;28;20443;-77
2022/06/27 09:08:32;;;;;;;2.75;0.50;;;23.00;61.40;;;;;;4983913;28;20021;-77
2022/06/27 09:10:59;;;;;;;2.22;0.45;;;23.20;64.50;;;;;;4985090;28;20027;-77
2022/06/27 09:13:27;;;;;;;6.05;0.52;;;23.90;61.80;;;;;;4985347;28;20030;-76
2022/06/27 09:16:02;;;;;;;5.38;0.50;;;23.30;61.30;;;;;;4991898;28;20023;-77
2022/06/27 09:18:38;;;;;;;2.97;0.30;;;22.70;59.70;;;;;;4963697;28;20026;-77
2022/06/27 09:21:13;;;;;;;2.42;0.70;;;22.50;61.90;;;;;;4989983;28;20019;-77
2022/06/27 09:23:49;;;;;;;2.60;0.70;;;22.60;64.90;;;;;;4991725;28;20026;-76
2022/06/27 09:26:25;;;;;;;5.28;0.65;;;23.10;63.70;;;;;;4992861;28;20033;-77
2022/06/27 09:28:58;;;;;;;2.55;0.40;;;24.40;61.70;;;;;;4994852;28;20076;-77
2022/06/27 09:31:35;;;;;;;2.65;0.40;;;25.70;58.80;;;;;;4988460;28;20066;-78
2022/06/27 09:34:09;;;;;;;5.82;0.60;;;26.10;54.20;;;;;;4986006;28;20090;-77
2022/06/27 09:36:39;;;;;;;5.70;0.55;;;25.10;55.00;;;;;;4991447;28;20018;-78
2022/06/27 09:39:16;;;;;;;3.58;0.98;;;25.00;55.70;;;;;;4991387;28;20108;-78
2022/06/27 09:41:45;;;;;;;3.40;0.80;;;24.60;57.70;;;;;;4973765;28;20053;-77
2022/06/27 09:44:15;;;;;;;4.68;0.40;;;24.60;59.80;;;;;;4988849;28;20037;-77
2022/06/27 09:46:49;;;;;;;5.57;0.73;;;25.60;57.10;;;;;;4989970;28;20018;-77
2022/06/27 09:49:15;;;;;;;2.38;0.38;;;25.60;52.30;;;;;;4991258;28;20018;-77
2022/06/27 09:51:42;;;;;;;2.65;0.50;;;25.70;55.20;;;;;;4990979;28;20026;-78
2022/06/27 09:54:11;;;;;;;1.92;0.43;;;26.30;53.70;;;;;;4991238;28;20100;-77
2022/06/27 09:56:42;;;;;;;3.50;0.68;;;27.00;52.70;;;;;;4984529;28;20080;-77
2022/06/27 09:59:11;;;;;;;1.30;0.50;;;27.40;49.70;;;;;;4991132;28;20112;-77
2022/06/27 10:01:40;;;;;;;1.98;0.20;;;26.30;51.70;;;;;;4992193;28;20030;-78
2022/06/27 10:04:07;;;;;;;3.70;0.60;;;26.50;52.70;;;;;;4991509;28;20030;-78
2022/06/27 10:06:35;;;;;;;4.95;0.95;;;26.80;50.30;;;;;;4991301;28;20053;-77
2022/06/27 10:09:04;;;;;;;2.75;0.40;;;27.10;51.00;;;;;;4990696;28;20024;-79
2022/06/27 10:11:30;;;;;;;6.75;0.98;;;27.00;48.10;;;;;;4991119;28;20364;-78
2022/06/27 10:14:20;;;;;;;3.10;0.77;;;27.00;51.50;;;;;;4990534;28;20034;-78
2022/06/27 10:17:13;;;;;;;2.25;0.40;;;25.80;51.10;;;;;;4985019;28;20027;-77
2022/06/27 10:20:07;;;;;;;3.47;0.43;;;25.20;53.20;;;;;;4983238;28;20037;-77
2022/06/27 10:22:32;;;;;;;3.83;0.60;;;24.00;56.30;;;;;;4987976;28;20022;-77
2022/06/27 10:25:26;;;;;;;2.42;0.63;;;24.90;55.70;;;;;;4991005;28;20513;-78
2022/06/27 10:28:07;;;;;;;3.60;0.45;;;25.90;53.70;;;;;;4986680;28;20032;-77
2022/06/27 10:30:46;;;;;;;1.55;0.28;;;26.20;54.20;;;;;;4992301;28;20093;-78
2022/06/27 10:33:27;;;;;;;2.33;0.50;;;26.90;52.10;;;;;;4985742;28;20061;-77
2022/06/27 10:35:59;;;;;;;4.80;0.80;;;26.90;49.70;;;;;;4985735;28;20019;-77
2022/06/27 10:38:30;;;;;;;4.68;0.52;;;25.30;51.20;;;;;;4990919;28;20471;-78
2022/06/27 10:40:57;;;;;;;4.38;0.90;;;25.00;55.80;;;;;;4991212;28;20018;-77
2022/06/27 10:43:43;;;;;;;2.42;1.00;;;25.60;56.50;;;;;;4973614;28;20077;-78
2022/06/27 10:46:09;;;;;;;3.20;0.52;;;26.20;53.50;;;;;;4969078;28;20109;-78
2022/06/27 10:48:42;;;;;;;4.13;0.40;;;27.50;51.30;;;;;;4990302;28;20101;-77
2022/06/27 10:51:26;;;;;;;3.22;0.80;;;27.70;48.00;;;;;;4990708;28;20045;-77
2022/06/27 10:54:04;;;;;;;7.47;1.02;;;28.20;51.00;;;;;;4969397;28;20296;-78
2022/06/27 10:56:30;;;;;;;2.75;0.43;;;27.90;47.80;;;;;;4987266;28;20037;-79
2022/06/27 10:58:57;;;;;;;2.90;0.40;;;27.90;47.30;;;;;;4992006;28;20031;-78
2022/06/27 11:01:22;;;;;;;5.18;0.32;;;28.20;50.60;;;;;;4995834;28;20022;-78
2022/06/27 11:03:49;;;;;;;4.78;0.45;;;28.00;48.40;;;;;;4994118;28;20419;-78
2022/06/27 11:06:15;;;;;;;4.63;0.43;;;28.00;47.00;;;;;;4993557;28;20038;-77
2022/06/27 11:08:46;;;;;;;2.67;0.68;;;27.50;48.40;;;;;;4993044;28;20019;-79
2022/06/27 11:11:17;;;;;;;2.33;0.35;;;26.70;51.20;;;;;;4987483;28;20086;-78
2022/06/27 11:13:44;;;;;;;4.72;0.30;;;26.80;49.90;;;;;;4993476;28;20031;-78
2022/06/27 11:16:17;;;;;;;2.35;0.38;;;27.50;51.10;;;;;;4975747;28;20022;-79
2022/06/27 11:19:00;;;;;;;2.22;0.50;;;28.50;49.50;;;;;;4977341;28;20178;-77
2022/06/27 11:21:34;;;;;;;2.03;0.50;;;28.00;48.70;;;;;;4993194;28;20029;-77
2022/06/27 11:24:18;;;;;;;4.28;0.65;;;28.80;48.60;;;;;;4987992;28;20365;-78
2022/06/27 11:26:46;;;;;;;3.75;0.52;;;28.70;47.80;;;;;;4987625;28;20475;-77
2022/06/27 11:32:06;;;;;;;5.13;0.90;;;25.40;52.90;;;;;;4995038;28;20034;-78
2022/06/27 11:34:35;;;;;;;0.88;0.32;;;24.30;58.60;;;;;;4993793;28;20030;-78
2022/06/27 11:37:07;;;;;;;1.52;0.22;;;23.90;59.90;;;;;;4993923;28;20046;-78
2022/06/27 11:39:34;;;;;;;1.73;0.15;;;24.40;59.10;;;;;;4993468;28;20026;-78
2022/06/27 11:42:11;;;;;;;1.85;0.10;;;25.80;56.40;;;;;;4993324;28;20477;-78
2022/06/27 11:45:05;;;;;;;1.30;0.28;;;25.00;54.40;;;;;;4993512;28;20022;-78
2022/06/27 11:47:37;;;;;;;5.47;0.40;;;24.70;56.90;;;;;;4985889;28;20101;-77
2022/06/27 11:50:11;;;;;;;2.67;0.32;;;24.80;56.90;;;;;;4993530;28;20018;-78
2022/06/27 11:52:42;;;;;;;2.85;0.20;;;25.00;59.00;;;;;;4993388;28;20033;-78
2022/06/27 11:55:13;;;;;;;2.17;0.40;;;24.10;55.80;;;;;;4993415;28;20050;-77
2022/06/27 11:57:44;;;;;;;0.00;0.00;;;23.60;58.90;;;;;;4986654;28;20074;-78
2022/06/27 12:00:22;;;;;;;1.42;0.20;;;23.70;58.90;;;;;;4993073;28;20018;-77
2022/06/27 12:03:00;;;;;;;1.52;0.10;;;23.80;58.50;;;;;;4991735;28;20023;-78
2022/06/27 12:05:26;;;;;;;2.15;0.10;;;23.50;58.70;;;;;;4992789;28;20586;-76
2022/06/27 12:07:53;;;;;;;1.98;0.20;;;23.40;60.20;;;;;;4991764;28;20487;-77
2022/06/27 12:11:16;;;;;;;0.52;0.10;;;23.30;58.80;;;;;;4993515;28;20050;-77
2022/06/27 12:13:32;;;;;;;1.40;0.47;;;23.40;60.40;;;;;;4990077;28;20050;-77
2022/06/27 12:16:00;;;;;;;1.25;0.30;;;23.40;60.40;;;;;;4993064;28;20018;-77
2022/06/27 12:18:41;;;;;;;1.15;0.20;;;24.30;60.30;;;;;;4991785;28;20026;-77
2022/06/27 12:21:08;;;;;;;2.37;0.50;;;24.60;59.80;;;;;;4992943;28;20017;-77
2022/06/27 12:23:34;;;;;;;1.05;0.25;;;24.20;59.10;;;;;;4992571;28;20074;-77
2022/06/27 12:26:00;;;;;;;1.70;0.38;;;23.40;61.20;;;;;;4992800;28;20030;-78
2022/06/27 12:28:26;;;;;;;3.63;0.30;;;23.00;62.60;;;;;;4975589;28;20023;-76
2022/06/27 12:30:52;;;;;;;4.03;0.32;;;22.20;63.50;;;;;;4976957;28;20514;-77
2022/06/27 12:33:18;;;;;;;2.65;0.30;;;21.60;68.10;;;;;;4992738;28;20541;-79
2022/06/27 12:35:44;;;;;;;2.45;0.38;;;21.50;71.30;;;;;;4993015;28;20025;-79
2022/06/27 12:38:10;;;;;;;6.03;0.40;;;21.60;73.20;;;;;;4990365;28;20495;-77
2022/06/27 12:40:36;;;;;;;1.85;0.30;;;21.90;72.50;;;;;;4991915;28;20022;-78
2022/06/27 12:43:06;;;;;;;3.53;0.45;;;21.80;73.50;;;;;;4992091;28;20057;-78
2022/06/27 12:45:33;;;;;;;2.20;0.30;;;21.50;73.90;;;;;;4991070;28;20019;-78
2022/06/27 12:47:59;;;;;;;2.80;0.52;;;21.60;75.50;;;;;;4980086;28;20042;-77
2022/06/27 12:50:25;;;;;;;2.30;0.32;;;21.60;76.80;;;;;;4991717;28;20022;-77
2022/06/27 12:52:50;;;;;;;3.42;0.40;;;21.80;80.00;;;;;;4991858;28;20463;-76
2022/06/27 12:55:16;;;;;;;3.33;0.50;;;21.80;75.30;;;;;;4991339;28;20037;-76
2022/06/27 12:57:43;;;;;;;3.25;0.40;;;22.30;75.70;;;;;;4991106;28;20018;-77
2022/06/27 13:00:09;;;;;;;2.50;0.40;;;21.90;74.30;;;;;;4991159;28;20455;-77
2022/06/27 13:02:35;;;;;;;0.88;0.25;;;22.80;70.20;;;;;;4992644;28;20061;-77
2022/06/27 13:05:01;;;;;;;0.88;0.10;;;24.50;63.00;;;;;;4992378;28;20479;-77